createdAt,value
2022-11-05T00:01:41.858Z,20.47
2022-11-05T00:04:30.758Z,17.83
2022-11-05T00:07:29.508Z,25.50
2022-11-05T00:10:00.498Z,23.20
2022-11-05T00:12:45.835Z,17.47
2022-11-05T00:15:30.872Z,21.90
2022-11-05T00:17:58.152Z,19.30
2022-11-05T00:20:25.095Z,35.73
2022-11-05T00:23:26.269Z,21.27
2022-11-05T00:25:57.108Z,27.33
2022-11-05T00:28:24.025Z,20.63
2022-11-05T00:30:51.255Z,18.37
2022-11-05T00:33:20.414Z,27.20
2022-11-05T00:35:47.145Z,16.30
2022-11-05T00:38:20.690Z,78.00
2022-11-05T00:40:47.619Z,36.97
2022-11-05T00:43:43.587Z,11.77
2022-11-05T00:46:10.438Z,14.07
2022-11-05T00:48:56.037Z,18.50
2022-11-05T00:51:22.616Z,16.13
2022-11-05T00:53:49.340Z,11.80
2022-11-05T00:56:15.939Z,14.33
2022-11-05T00:58:42.518Z,13.00
2022-11-05T01:01:10.274Z,18.60
2022-11-05T01:03:39.243Z,14.50
2022-11-05T01:06:08.138Z,13.20
2022-11-05T01:08:34.737Z,13.13
2022-11-05T01:11:09.432Z,17.50
2022-11-05T01:13:37.083Z,14.43
2022-11-05T01:16:07.323Z,20.20
2022-11-05T01:18:34.518Z,28.47
2022-11-05T01:21:09.906Z,18.43
2022-11-05T01:23:36.658Z,15.00
2022-11-05T01:26:03.291Z,13.93
2022-11-05T01:28:30.090Z,14.43
2022-11-05T01:30:57.309Z,25.63
2022-11-05T01:33:24.129Z,14.73
2022-11-05T01:35:51.163Z,14.93
2022-11-05T01:38:18.658Z,13.23
2022-11-05T01:40:45.772Z,18.00
2022-11-05T01:43:16.473Z,16.60
2022-11-05T01:45:45.099Z,13.07
2022-11-05T01:48:16.414Z,35.93
2022-11-05T01:50:48.083Z,12.43
2022-11-05T01:53:29.659Z,15.07
2022-11-05T01:56:00.680Z,20.83
2022-11-05T01:58:32.683Z,12.73
2022-11-05T02:00:59.619Z,12.90
2022-11-05T02:03:26.826Z,11.50
2022-11-05T02:05:56.895Z,12.03
2022-11-05T02:08:41.729Z,14.43
2022-11-05T02:11:09.027Z,12.20
2022-11-05T02:13:36.187Z,12.90
2022-11-05T02:16:11.924Z,12.83
2022-11-05T02:18:48.211Z,32.80
2022-11-05T02:21:39.028Z,23.00
2022-11-05T02:24:46.862Z,25.23
2022-11-05T02:27:20.511Z,17.53
2022-11-05T02:30:08.881Z,14.67
2022-11-05T02:33:02.084Z,13.30
2022-11-05T02:35:48.787Z,12.07
2022-11-05T02:38:23.353Z,14.20
2022-11-05T02:41:02.028Z,15.33
2022-11-05T02:43:42.233Z,12.97
2022-11-05T02:46:14.636Z,12.50
2022-11-05T02:48:52.380Z,18.30
2022-11-05T02:51:24.078Z,15.60
2022-11-05T02:53:57.894Z,20.07
2022-11-05T02:56:28.390Z,18.30
2022-11-05T02:58:55.009Z,15.70
2022-11-05T03:01:21.955Z,18.10
2022-11-05T03:03:53.299Z,19.43
2022-11-05T03:06:47.583Z,21.37
2022-11-05T03:09:28.576Z,15.67
2022-11-05T03:12:06.963Z,18.27
2022-11-05T03:14:40.346Z,15.90
2022-11-05T03:17:20.764Z,17.63
2022-11-05T03:19:56.788Z,15.37
2022-11-05T03:22:25.858Z,20.70
2022-11-05T03:24:57.680Z,17.63
2022-11-05T03:27:28.836Z,19.77
2022-11-05T03:30:01.531Z,20.20
2022-11-05T03:32:31.501Z,21.37
2022-11-05T03:35:04.040Z,18.67
2022-11-05T03:37:35.900Z,16.93
2022-11-05T03:40:06.001Z,18.00
2022-11-05T03:42:35.563Z,17.67
2022-11-05T03:45:09.099Z,20.20
2022-11-05T03:47:39.053Z,22.27
2022-11-05T03:50:14.091Z,24.00
2022-11-05T03:52:47.613Z,24.33
2022-11-05T03:55:15.035Z,18.50
2022-11-05T03:57:44.814Z,19.17
2022-11-05T04:00:13.387Z,21.73
2022-11-05T04:02:41.234Z,21.93
2022-11-05T04:05:09.042Z,18.53
2022-11-05T04:07:53.961Z,18.13
2022-11-05T04:10:38.902Z,20.73
2022-11-05T04:13:23.429Z,21.37
2022-11-05T04:16:08.519Z,22.60
2022-11-05T04:18:36.070Z,16.10
2022-11-05T04:21:21.968Z,23.47
2022-11-05T04:24:06.945Z,22.93
2022-11-05T04:26:33.634Z,27.10
2022-11-05T04:29:18.692Z,22.80
2022-11-05T04:31:45.558Z,25.07
2022-11-05T04:34:12.428Z,17.80
2022-11-05T04:36:39.714Z,21.57
2022-11-05T04:39:06.737Z,21.30
2022-11-05T04:41:33.740Z,22.07
2022-11-05T04:44:00.824Z,23.23
2022-11-05T04:46:27.359Z,22.17
2022-11-05T04:48:54.041Z,26.80
2022-11-05T04:51:20.899Z,20.37
2022-11-05T04:53:49.669Z,23.43
2022-11-05T04:56:19.818Z,21.73
2022-11-05T04:58:47.002Z,20.17
2022-11-05T05:01:15.035Z,24.53
2022-11-05T05:03:42.435Z,22.57
2022-11-05T05:06:09.383Z,27.70
2022-11-05T05:08:36.502Z,20.90
2022-11-05T05:11:04.755Z,22.77
2022-11-05T05:13:31.500Z,24.10
2022-11-05T05:15:58.361Z,19.47
2022-11-05T05:18:26.078Z,22.17
2022-11-05T05:21:14.650Z,21.23
2022-11-05T05:23:41.297Z,23.70
2022-11-05T05:26:08.540Z,24.40
2022-11-05T05:28:35.463Z,26.93
2022-11-05T05:31:02.528Z,19.80
2022-11-05T05:33:29.116Z,24.97
2022-11-05T05:35:57.081Z,20.77
2022-11-05T05:38:23.964Z,21.80
2022-11-05T05:40:50.930Z,24.73
2022-11-05T05:43:18.164Z,17.93
2022-11-05T05:45:45.086Z,19.30
2022-11-05T05:48:13.859Z,20.83
2022-11-05T05:50:40.712Z,21.67
2022-11-05T05:53:08.267Z,24.17
2022-11-05T05:55:35.281Z,22.37
2022-11-05T05:58:01.846Z,23.40
2022-11-05T06:00:29.269Z,23.27
2022-11-05T06:02:55.952Z,22.63
2022-11-05T06:05:22.860Z,21.57
2022-11-05T06:07:55.651Z,22.37
2022-11-05T06:10:22.772Z,19.63
2022-11-05T06:12:49.421Z,18.93
2022-11-05T06:15:16.360Z,17.47
2022-11-05T06:17:43.911Z,17.53
2022-11-05T06:20:11.460Z,24.00
2022-11-05T06:22:39.317Z,19.90
2022-11-05T06:25:07.214Z,17.83
2022-11-05T06:27:35.352Z,18.30
2022-11-05T06:30:02.408Z,17.50
2022-11-05T06:32:30.431Z,14.47
2022-11-05T06:34:57.910Z,17.13
2022-11-05T06:37:24.536Z,15.40
2022-11-05T06:39:51.117Z,18.50
2022-11-05T06:42:18.936Z,17.30
2022-11-05T06:44:46.104Z,21.00
2022-11-05T06:47:12.973Z,11.97
2022-11-05T06:49:39.557Z,16.17
2022-11-05T06:52:06.863Z,22.53
2022-11-05T06:54:35.063Z,13.60
2022-11-05T06:57:03.718Z,16.93
2022-11-05T06:59:31.527Z,14.33
2022-11-05T07:01:58.236Z,16.93
2022-11-05T07:04:24.937Z,15.10
2022-11-05T07:06:51.867Z,17.03
2022-11-05T07:09:19.153Z,13.57
2022-11-05T07:11:46.065Z,14.90
2022-11-05T07:14:12.924Z,15.67
2022-11-05T07:16:39.495Z,19.13
2022-11-05T07:19:06.460Z,14.00
2022-11-05T07:21:37.498Z,18.97
2022-11-05T07:24:07.696Z,14.53
2022-11-05T07:26:34.940Z,14.13
2022-11-05T07:29:01.692Z,19.43
2022-11-05T07:31:28.363Z,14.70
2022-11-05T07:33:55.200Z,16.03
2022-11-05T07:36:21.752Z,15.47
2022-11-05T07:38:48.862Z,16.23
2022-11-05T07:41:16.414Z,17.60
2022-11-05T07:43:43.784Z,15.17
2022-11-05T07:46:13.829Z,13.00
2022-11-05T07:48:41.235Z,14.97
2022-11-05T07:51:08.122Z,15.83
2022-11-05T07:53:34.747Z,19.60
2022-11-05T07:56:01.685Z,18.50
2022-11-05T07:58:28.589Z,13.23
2022-11-05T08:00:56.798Z,18.60
2022-11-05T08:03:23.720Z,11.77
2022-11-05T08:05:50.745Z,15.67
2022-11-05T08:08:18.943Z,14.57
2022-11-05T08:10:46.075Z,11.13
2022-11-05T08:13:14.242Z,12.60
2022-11-05T08:15:42.491Z,12.67
2022-11-05T08:18:15.992Z,10.33
2022-11-05T08:20:44.459Z,11.27
2022-11-05T08:23:12.067Z,14.10
2022-11-05T08:25:39.685Z,12.17
2022-11-05T08:28:07.825Z,7.30
2022-11-05T08:30:36.667Z,12.63
2022-11-05T08:33:08.798Z,11.77
2022-11-05T08:35:37.249Z,10.37
2022-11-05T08:38:06.036Z,11.80
2022-11-05T08:40:35.064Z,12.53
2022-11-05T08:43:03.629Z,9.23
2022-11-05T08:45:30.945Z,10.80
2022-11-05T08:48:00.921Z,11.67
2022-11-05T08:50:27.931Z,11.97
2022-11-05T08:52:56.617Z,8.27
2022-11-05T08:55:23.577Z,12.10
2022-11-05T08:57:55.851Z,15.57
2022-11-05T09:00:22.854Z,12.13
2022-11-05T09:02:50.347Z,18.63
2022-11-05T09:05:17.207Z,7.87
2022-11-05T09:07:44.081Z,10.80
2022-11-05T09:10:11.880Z,9.60
2022-11-05T09:12:38.827Z,9.53
2022-11-05T09:15:06.396Z,14.83
2022-11-05T09:17:33.436Z,12.83
2022-11-05T09:20:02.356Z,10.03
2022-11-05T09:22:29.476Z,12.60
2022-11-05T09:24:56.258Z,10.73
2022-11-05T09:27:23.690Z,8.13
2022-11-05T09:29:51.872Z,8.23
2022-11-05T09:32:22.488Z,12.83
2022-11-05T09:34:49.493Z,13.23
2022-11-05T09:37:16.444Z,11.20
2022-11-05T09:39:43.392Z,14.07
2022-11-05T09:42:15.408Z,12.53
2022-11-05T09:44:47.386Z,7.67
2022-11-05T09:47:20.082Z,10.20
2022-11-05T09:49:49.773Z,8.40
2022-11-05T09:52:21.472Z,10.03
2022-11-05T09:54:51.980Z,10.03
2022-11-05T09:57:25.435Z,10.67
2022-11-05T09:59:55.240Z,7.10
2022-11-05T10:02:28.180Z,11.90
2022-11-05T10:05:00.704Z,12.97
2022-11-05T10:07:36.156Z,12.70
2022-11-05T10:10:06.789Z,8.33
2022-11-05T10:12:42.570Z,10.87
2022-11-05T10:15:15.263Z,11.57
2022-11-05T10:17:47.385Z,9.57
2022-11-05T10:20:19.659Z,11.27
2022-11-05T10:22:49.620Z,11.53
2022-11-05T10:25:22.392Z,10.27
2022-11-05T10:27:52.959Z,12.23
2022-11-05T10:30:21.470Z,9.57
2022-11-05T10:32:51.945Z,6.60
2022-11-05T10:35:23.116Z,6.43
2022-11-05T10:37:53.999Z,7.33
2022-11-05T10:40:35.178Z,6.23
2022-11-05T10:43:06.358Z,8.40
2022-11-05T10:45:43.772Z,9.97
2022-11-05T10:48:43.972Z,8.17
2022-11-05T10:51:11.345Z,11.67
2022-11-05T10:53:38.659Z,6.67
2022-11-05T10:56:30.087Z,6.50
2022-11-05T10:58:59.421Z,7.33
2022-11-05T11:01:27.010Z,7.47
2022-11-05T11:04:06.738Z,5.87
2022-11-05T11:06:37.193Z,7.63
2022-11-05T11:09:06.652Z,9.00
2022-11-05T11:11:36.170Z,4.73
2022-11-05T11:14:17.757Z,7.33
2022-11-05T11:16:47.532Z,8.47
2022-11-05T11:19:29.613Z,7.23
2022-11-05T11:22:16.915Z,6.87
2022-11-05T11:24:47.142Z,6.73
2022-11-05T11:27:19.831Z,17.60
2022-11-05T11:29:50.925Z,10.80
2022-11-05T11:32:20.297Z,9.67
2022-11-05T11:34:52.003Z,5.33
2022-11-05T11:37:24.003Z,7.07
2022-11-05T11:39:56.243Z,7.67
2022-11-05T11:42:29.394Z,8.70
2022-11-05T11:44:59.016Z,9.67
2022-11-05T11:47:30.874Z,7.67
2022-11-05T12:18:20.393Z,6.80
2022-11-05T12:21:06.077Z,5.20
2022-11-05T12:24:08.404Z,5.47
2022-11-05T12:26:46.429Z,7.30
2022-11-05T12:29:35.786Z,5.53
2022-11-05T12:32:40.018Z,4.63
2022-11-05T12:35:21.107Z,4.90
2022-11-05T12:37:57.267Z,4.40
2022-11-05T12:40:43.006Z,7.47
2022-11-05T12:43:18.964Z,3.27
2022-11-05T12:45:57.412Z,7.17
2022-11-05T12:49:00.531Z,5.07
2022-11-05T12:51:43.929Z,4.33
2022-11-05T12:54:23.292Z,4.83
2022-11-05T12:56:57.080Z,7.17
2022-11-05T12:59:28.148Z,4.43
2022-11-05T13:02:08.349Z,9.53
2022-11-05T13:04:41.700Z,4.83
2022-11-05T13:07:13.406Z,3.13
2022-11-05T13:09:44.918Z,5.83
2022-11-05T13:12:15.142Z,4.97
2022-11-05T13:14:45.353Z,3.80
2022-11-05T13:17:15.776Z,4.47
2022-11-05T13:19:48.920Z,7.70
2022-11-05T13:22:29.028Z,5.37
2022-11-05T13:24:59.542Z,8.70
2022-11-05T13:27:47.120Z,2.80
2022-11-05T13:30:25.619Z,6.93
2022-11-05T13:32:59.396Z,7.23
2022-11-05T13:35:31.512Z,11.37
2022-11-05T13:38:23.419Z,4.53
2022-11-05T13:41:02.896Z,7.83
2022-11-05T13:43:53.134Z,7.07
2022-11-05T13:46:34.135Z,5.70
2022-11-05T13:49:21.984Z,5.87
2022-11-05T13:51:54.768Z,6.87
2022-11-05T13:54:51.847Z,6.23
2022-11-05T13:57:49.624Z,9.07
2022-11-05T14:00:19.713Z,4.43
2022-11-05T14:02:51.022Z,6.73
2022-11-05T14:05:27.391Z,8.37
2022-11-05T14:07:55.182Z,5.70
2022-11-05T14:10:30.055Z,5.30
2022-11-05T14:12:59.167Z,5.43
2022-11-05T14:15:28.598Z,7.37
2022-11-05T14:17:59.576Z,10.00
2022-11-05T14:20:57.865Z,6.97
2022-11-05T14:23:46.009Z,7.70
2022-11-05T14:26:15.862Z,6.47
2022-11-05T14:28:47.718Z,7.60
2022-11-05T14:34:45.665Z,4.97
2022-11-05T14:37:27.749Z,8.67
2022-11-05T14:39:55.358Z,5.87
2022-11-05T14:42:28.093Z,4.67
2022-11-05T14:45:20.874Z,9.43
2022-11-05T14:47:54.943Z,5.40
2022-11-05T14:50:26.841Z,5.07
2022-11-05T14:52:56.593Z,7.17
2022-11-05T14:55:27.900Z,10.60
2022-11-05T14:58:18.992Z,7.30
2022-11-05T15:00:48.963Z,5.23
2022-11-05T15:03:46.882Z,7.27
2022-11-05T15:06:29.364Z,4.67
2022-11-05T15:09:23.738Z,11.63
2022-11-05T15:12:01.823Z,6.50
2022-11-05T15:14:33.395Z,4.67
2022-11-05T15:17:08.119Z,8.67
2022-11-05T15:19:37.042Z,4.63
2022-11-05T15:22:10.000Z,8.23
2022-11-05T15:24:41.334Z,6.70
2022-11-05T15:27:16.845Z,9.97
2022-11-05T15:29:43.707Z,6.60
2022-11-05T15:32:16.870Z,6.30
2022-11-05T15:34:51.005Z,9.20
2022-11-05T15:37:23.047Z,4.20
2022-11-05T15:39:52.047Z,5.77
2022-11-05T15:42:21.681Z,7.97
2022-11-05T15:44:51.183Z,8.60
2022-11-05T15:47:25.133Z,6.40
2022-11-05T15:49:54.654Z,9.83
2022-11-05T15:52:24.773Z,8.73
2022-11-05T15:55:14.683Z,8.03
2022-11-05T15:57:50.427Z,14.00
2022-11-05T16:00:25.612Z,10.37
2022-11-05T16:02:54.985Z,12.80
2022-11-05T16:05:24.774Z,14.20
2022-11-05T16:07:51.943Z,11.60
2022-11-05T16:10:22.612Z,10.90
2022-11-05T16:12:49.671Z,10.80
2022-11-05T16:15:22.271Z,13.30
2022-11-05T16:17:55.237Z,12.07
2022-11-05T16:20:26.587Z,8.20
2022-11-05T16:22:55.966Z,9.13
2022-11-05T16:25:37.519Z,12.33
2022-11-05T16:28:06.260Z,12.63
2022-11-05T16:30:33.785Z,13.67
2022-11-05T16:33:05.919Z,10.63
2022-11-05T16:35:32.978Z,7.60
2022-11-05T16:38:01.776Z,9.57
2022-11-05T16:40:29.199Z,10.57
2022-11-05T16:43:16.618Z,12.83
2022-11-05T16:45:43.937Z,12.83
2022-11-05T16:48:12.556Z,8.27
2022-11-05T16:50:39.739Z,13.57
2022-11-05T16:53:06.582Z,13.17
2022-11-05T16:55:35.864Z,10.43
2022-11-05T16:58:03.138Z,18.57
2022-11-05T17:00:30.051Z,12.10
2022-11-05T17:02:57.215Z,12.00
2022-11-05T17:05:25.488Z,16.03
2022-11-05T17:07:52.907Z,11.43
2022-11-05T17:10:20.664Z,16.97
2022-11-05T17:12:47.712Z,13.40
2022-11-05T17:15:18.391Z,14.90
2022-11-05T17:17:45.628Z,18.30
2022-11-05T17:20:23.107Z,23.70
2022-11-05T17:22:49.991Z,15.13
2022-11-05T17:25:16.897Z,14.10
2022-11-05T17:27:45.491Z,11.83
2022-11-05T17:30:13.528Z,12.50
2022-11-05T17:32:42.199Z,12.03
2022-11-05T17:35:09.383Z,14.47
2022-11-05T17:37:36.491Z,13.20
2022-11-05T17:40:04.956Z,14.27
2022-11-05T17:42:31.933Z,15.03
2022-11-05T17:44:58.831Z,15.20
2022-11-05T17:47:27.053Z,25.27
2022-11-05T17:49:54.301Z,20.37
2022-11-05T17:52:21.508Z,18.00
2022-11-05T17:54:48.348Z,23.67
2022-11-05T17:57:15.241Z,15.40
2022-11-05T17:59:44.583Z,16.30
2022-11-05T18:02:12.069Z,15.07
2022-11-05T18:04:39.555Z,16.23
2022-11-05T18:07:07.235Z,12.80
2022-11-05T18:09:33.986Z,15.83
2022-11-05T18:12:00.988Z,32.13
2022-11-05T18:14:31.178Z,29.13
2022-11-05T18:16:59.442Z,21.40
2022-11-05T18:19:26.964Z,22.80
2022-11-05T18:21:54.062Z,40.70
2022-11-05T18:24:22.039Z,50.00
2022-11-05T18:26:49.311Z,45.53
2022-11-05T18:29:16.287Z,38.87
2022-11-05T18:31:43.293Z,27.73
2022-11-05T18:34:10.479Z,20.97
2022-11-05T18:36:37.179Z,20.07
2022-11-05T18:39:05.917Z,20.30
2022-11-05T18:41:36.693Z,18.47
2022-11-05T18:44:05.679Z,16.30
2022-11-05T18:46:57.248Z,22.00
2022-11-05T18:49:20.371Z,24.23
2022-11-05T18:51:47.073Z,17.10
2022-11-05T18:54:14.030Z,14.00
2022-11-05T18:56:44.654Z,19.23
2022-11-05T18:59:35.035Z,14.50
2022-11-05T19:01:58.722Z,13.87
2022-11-05T19:04:26.321Z,16.70
2022-11-05T19:06:53.189Z,17.20
2022-11-05T19:09:20.134Z,16.77
2022-11-05T19:11:47.446Z,15.93
2022-11-05T19:14:14.059Z,15.87
2022-11-05T19:16:40.651Z,13.27
2022-11-05T19:19:07.509Z,12.87
2022-11-05T19:21:34.385Z,14.93
2022-11-05T19:24:02.491Z,14.67
2022-11-05T19:29:05.499Z,17.77
2022-11-05T19:31:37.949Z,13.87
2022-11-05T19:34:08.629Z,17.47
2022-11-05T19:36:35.936Z,28.53
2022-11-05T19:39:08.058Z,21.00
2022-11-05T19:41:44.196Z,22.33
2022-11-05T19:44:13.565Z,20.90
2022-11-05T19:46:40.823Z,16.63
2022-11-05T19:49:18.898Z,19.57
2022-11-05T19:51:46.131Z,21.83
2022-11-05T19:54:14.160Z,19.43
2022-11-05T19:56:43.017Z,20.63
2022-11-05T19:59:12.683Z,21.63
2022-11-05T20:01:40.575Z,15.87
2022-11-05T20:04:10.507Z,19.97
2022-11-05T20:06:39.796Z,20.93
2022-11-05T20:09:24.237Z,21.37
2022-11-05T20:11:53.567Z,20.17
2022-11-05T20:14:22.346Z,18.67
2022-11-05T20:16:52.095Z,17.00
2022-11-05T20:19:21.049Z,16.53
2022-11-05T20:21:48.562Z,20.47
2022-11-05T20:24:23.639Z,19.23
2022-11-05T20:26:52.400Z,19.87
2022-11-05T20:29:19.445Z,18.10
2022-11-05T20:31:47.807Z,20.70
2022-11-05T20:34:15.261Z,15.87
2022-11-05T20:36:45.398Z,14.30
2022-11-05T20:39:12.727Z,17.77
2022-11-05T20:41:47.592Z,19.67
2022-11-05T20:44:18.334Z,18.40
2022-11-05T20:46:54.134Z,20.40
2022-11-05T20:49:25.369Z,21.37
2022-11-05T20:51:53.527Z,18.83
2022-11-05T20:54:21.061Z,17.17
2022-11-05T20:56:48.780Z,18.10
2022-11-05T20:59:16.229Z,18.43
2022-11-05T21:01:44.617Z,14.30
2022-11-05T21:04:12.331Z,17.10
2022-11-05T21:06:42.866Z,17.67
2022-11-05T21:09:09.965Z,19.23
2022-11-05T21:11:51.874Z,21.37
2022-11-05T21:14:19.311Z,14.83
2022-11-05T21:16:46.779Z,18.13
2022-11-05T21:19:14.539Z,18.13
2022-11-05T21:21:42.432Z,14.63
2022-11-05T21:24:09.683Z,15.77
2022-11-05T21:26:36.911Z,15.17
2022-11-05T21:29:09.595Z,12.47
2022-11-05T21:31:36.862Z,15.30
2022-11-05T21:34:04.007Z,17.33
2022-11-05T21:36:31.499Z,18.07
2022-11-05T21:39:02.256Z,19.83
2022-11-05T21:41:29.436Z,15.83
2022-11-05T21:43:56.488Z,17.07
2022-11-05T21:46:23.641Z,18.00
2022-11-05T21:48:51.086Z,23.03
2022-11-05T21:51:37.181Z,19.60
2022-11-05T21:54:23.204Z,18.97
2022-11-05T21:57:11.211Z,23.53
2022-11-05T21:59:52.108Z,16.97
2022-11-05T22:02:20.736Z,25.73
2022-11-05T22:04:49.760Z,16.17
2022-11-05T22:07:20.581Z,18.60
2022-11-05T22:09:56.357Z,17.07
2022-11-05T22:12:26.050Z,31.33
2022-11-05T22:14:57.674Z,24.70
2022-11-05T22:17:24.870Z,24.93
2022-11-05T22:19:51.975Z,17.53
2022-11-05T22:22:19.350Z,19.13
2022-11-05T22:24:48.073Z,20.43
2022-11-05T22:27:22.115Z,31.93
2022-11-05T22:29:50.257Z,19.70
2022-11-05T22:32:26.204Z,29.03
2022-11-05T22:35:02.448Z,20.93
2022-11-05T22:37:31.708Z,17.47
2022-11-05T22:40:02.837Z,20.73
2022-11-05T22:42:30.187Z,20.50
2022-11-05T22:45:00.387Z,21.10
2022-11-05T22:47:27.363Z,14.63
2022-11-05T22:49:55.826Z,17.33
2022-11-05T22:52:22.459Z,14.83
2022-11-05T22:54:49.032Z,21.17
2022-11-05T22:57:16.361Z,23.37
2022-11-05T22:59:43.011Z,24.93
2022-11-05T23:02:10.330Z,30.03
2022-11-05T23:04:37.839Z,18.03
2022-11-05T23:07:27.301Z,20.03
2022-11-05T23:10:13.448Z,26.40
2022-11-05T23:12:43.628Z,17.77
2022-11-05T23:15:31.973Z,17.47
2022-11-05T23:18:16.681Z,21.17
2022-11-05T23:21:02.241Z,20.77
2022-11-05T23:23:46.787Z,24.77
2022-11-05T23:26:31.682Z,24.57
2022-11-05T23:28:59.378Z,34.20
2022-11-05T23:31:44.960Z,23.40
2022-11-05T23:34:11.599Z,21.67
2022-11-05T23:36:56.531Z,20.67
2022-11-05T23:39:23.354Z,22.83
2022-11-05T23:42:08.190Z,27.93
2022-11-05T23:44:54.062Z,24.83
2022-11-05T23:47:38.632Z,21.63
2022-11-05T23:50:05.847Z,19.60
2022-11-05T23:52:32.515Z,21.60
2022-11-05T23:54:59.237Z,19.27
2022-11-05T23:57:25.880Z,23.90
2022-11-05T23:59:53.141Z,28.70
